Time,TemperatureF,DewpointF,PressureIn,WindDirection,WindDirectionDegrees,WindSpeedMPH,WindSpeedGustMPH,Humidity,HourlyPrecipIn,Conditions,Clouds,dailyrainin,SoftwareType,DateUTC
2013-06-24 00:01:00,82.0,81.4,30.49,ESE,112,0.0,0.0,98,0.00,RA,,0.00,WeatherDisplay:10.37,2013-06-24 04:01:00,
2013-06-24 00:02:00,82.0,81.4,30.49,ESE,112,0.0,0.0,98,0.00,RA,,0.00,WeatherDisplay:10.37,2013-06-24 04:02:00,
2013-06-24 00:05:00,82.0,81.4,30.49,SE,135,1.1,1.1,98,0.00,RA,,0.00,WeatherDisplay:10.37,2013-06-24 04:05:00,
2013-06-24 00:10:00,82.0,81.4,30.50,East,90,0.0,0.0,98,0.00,CLR,,0.00,WeatherDisplay:10.37,2013-06-24 04:10:00,
2013-06-24 00:15:00,82.0,81.4,30.50,East,90,0.0,0.0,98,0.00,CLR,,0.00,WeatherDisplay:10.37,2013-06-24 04:15:00,
2013-06-24 00:20:00,82.0,81.4,30.53,East,90,0.0,0.0,98,0.00,CLR,,0.00,WeatherDisplay:10.37,2013-06-24 04:20:00,
2013-06-24 00:25:00,82.0,81.4,30.53,ESE,112,0.0,0.0,98,0.00,CLR,,0.00,WeatherDisplay:10.37,2013-06-24 04:25:00,
2013-06-24 00:30:00,82.2,81.6,30.53,ESE,112,1.1,1.1,98,0.00,CLR,,0.00,WeatherDisplay:10.37,2013-06-24 04:30:00,
2013-06-24 00:35:00,82.2,81.6,30.56,ESE,112,1.1,1.1,98,0.00,CLR,,0.00,WeatherDisplay:10.37,2013-06-24 04:35:00,
2013-06-24 00:40:00,82.2,81.6,30.56,ESE,112,0.0,0.0,98,0.00,CLR,,0.00,WeatherDisplay:10.37,2013-06-24 04:40:00,
2013-06-24 00:45:00,82.2,81.6,30.57,ESE,112,0.0,0.0,98,0.00,CLR,,0.00,WeatherDisplay:10.37,2013-06-24 04:45:00,
2013-06-24 00:50:00,82.2,81.6,30.57,ESE,112,1.1,1.1,98,0.00,CLR,,0.00,WeatherDisplay:10.37,2013-06-24 04:50:00,
2013-06-24 00:55:00,82.2,81.6,30.58,SSE,158,0.0,0.0,98,0.00,CLR,,0.00,WeatherDisplay:10.37,2013-06-24 04:55:00,
2013-06-24 01:00:00,82.2,81.6,30.58,ESE,112,0.0,0.0,98,0.00,CLR,,0.00,WeatherDisplay:10.37,2013-06-24 05:00:00,
2013-06-24 01:05:00,81.9,81.3,30.58,ESE,112,0.0,0.0,98,0.00,CLR,,0.00,WeatherDisplay:10.37,2013-06-24 05:05:00,
2013-06-24 01:10:00,81.9,81.3,30.61,ESE,112,1.1,1.1,98,0.00,CLR,,0.00,WeatherDisplay:10.37,2013-06-24 05:10:00,
2013-06-24 01:15:00,81.9,81.3,30.61,ESE,112,0.0,0.0,98,0.00,CLR,,0.00,WeatherDisplay:10.37,2013-06-24 05:15:00,
2013-06-24 01:20:00,82.0,81.4,30.52,ESE,112,0.0,0.0,98,0.00,CLR,,0.00,WeatherDisplay:10.37,2013-06-24 05:20:00,
2013-06-24 01:25:00,82.0,81.4,30.52,SE,135,3.5,3.5,98,0.00,CLR,,0.00,WeatherDisplay:10.37,2013-06-24 05:25:00,
2013-06-24 01:30:00,81.9,81.3,30.52,East,90,0.0,0.0,98,0.00,CLR,,0.00,WeatherDisplay:10.37,2013-06-24 05:30:00,
2013-06-24 01:35:00,81.9,81.3,30.20,East,90,0.0,0.0,98,0.00,CLR,,0.00,WeatherDisplay:10.37,2013-06-24 05:35:00,
2013-06-24 01:40:00,81.7,81.1,30.20,ESE,112,0.0,0.0,98,0.00,CLR,,0.00,WeatherDisplay:10.37,2013-06-24 05:40:00,
2013-06-24 01:46:00,81.5,80.9,30.01,ESE,112,0.0,0.0,98,0.00,CLR,,0.00,WeatherDisplay:10.37,2013-06-24 05:46:00,
2013-06-24 01:51:00,81.9,81.3,30.01,ESE,112,3.5,3.5,98,0.00,CLR,,0.00,WeatherDisplay:10.37,2013-06-24 05:51:00,
2013-06-24 01:56:00,81.9,81.3,29.89,ESE,112,1.1,1.1,98,0.00,CLR,,0.00,WeatherDisplay:10.37,2013-06-24 05:56:00,
2013-06-24 02:01:00,81.9,81.3,29.89,ESE,112,1.1,1.1,98,0.00,CLR,,0.00,WeatherDisplay:10.37,2013-06-24 06:01:00,
2013-06-24 02:06:00,81.9,81.3,29.81,ESE,112,1.1,0.0,98,0.00,CLR,,0.00,WeatherDisplay:10.37,2013-06-24 06:06:00,
2013-06-24 02:12:00,81.9,81.3,29.81,ESE,112,0.0,0.0,98,0.00,CLR,,0.00,WeatherDisplay:10.37,2013-06-24 06:12:00,
2013-06-24 02:17:00,81.9,81.3,29.81,ESE,112,0.0,0.0,98,0.00,CLR,,0.00,WeatherDisplay:10.37,2013-06-24 06:17:00,
2013-06-24 02:22:00,81.5,80.9,29.75,ESE,112,1.1,1.1,98,0.00,CLR,,0.00,WeatherDisplay:10.37,2013-06-24 06:22:00,
2013-06-24 02:28:00,81.5,80.9,29.75,East,90,0.0,0.0,98,0.00,CLR,,0.00,WeatherDisplay:10.37,2013-06-24 06:28:00,
2013-06-24 02:33:00,81.5,80.9,30.00,East,90,1.1,1.5,98,0.00,CLR,,0.00,WeatherDisplay:10.37,2013-06-24 06:33:00,
2013-06-24 02:38:00,81.5,80.9,30.00,ESE,112,0.0,0.0,98,0.00,CLR,,0.00,WeatherDisplay:10.37,2013-06-24 06:38:00,
2013-06-24 02:43:00,81.7,81.1,30.22,East,90,0.0,0.0,98,0.00,CLR,,0.00,WeatherDisplay:10.37,2013-06-24 06:43:00,
2013-06-24 02:49:00,81.7,81.1,30.22,ESE,112,3.5,3.5,98,0.00,CLR,,0.00,WeatherDisplay:10.37,2013-06-24 06:49:00,
2013-06-24 02:54:00,81.5,80.9,30.35,East,90,0.0,0.0,98,0.00,CLR,,0.00,WeatherDisplay:10.37,2013-06-24 06:54:00,
2013-06-24 03:00:00,81.7,81.1,30.35,ESE,112,0.0,0.0,98,0.00,CLR,,0.00,WeatherDisplay:10.37,2013-06-24 07:00:00,
2013-06-24 03:06:00,81.7,81.1,30.35,SE,135,0.0,0.0,98,0.00,CLR,,0.00,WeatherDisplay:10.37,2013-06-24 07:06:00,
2013-06-24 03:11:00,81.7,81.1,30.42,ESE,112,2.3,2.3,98,0.00,CLR,,0.00,WeatherDisplay:10.37,2013-06-24 07:11:00,
2013-06-24 03:16:00,81.7,81.1,30.42,ESE,112,0.0,0.0,98,0.00,CLR,,0.00,WeatherDisplay:10.37,2013-06-24 07:16:00,
2013-06-24 03:21:00,81.7,81.1,30.47,East,90,0.0,0.0,98,0.00,CLR,,0.00,WeatherDisplay:10.37,2013-06-24 07:21:00,
2013-06-24 03:26:00,81.5,80.9,30.47,ESE,112,1.7,1.7,98,0.00,CLR,,0.00,WeatherDisplay:10.37,2013-06-24 07:26:00,
2013-06-24 03:31:00,81.5,80.9,30.53,ESE,112,2.7,2.7,98,0.00,CLR,,0.00,WeatherDisplay:10.37,2013-06-24 07:31:00,
2013-06-24 03:36:00,81.3,80.7,30.53,ESE,112,0.0,0.0,98,0.00,CLR,,0.00,WeatherDisplay:10.37,2013-06-24 07:36:00,
2013-06-24 03:41:00,81.3,80.7,30.53,ESE,112,0.0,0.0,98,0.00,CLR,,0.00,WeatherDisplay:10.37,2013-06-24 07:41:00,
2013-06-24 03:46:00,81.3,80.7,30.56,SE,135,0.0,0.0,98,0.00,CLR,,0.00,WeatherDisplay:10.37,2013-06-24 07:46:00,
2013-06-24 03:51:00,81.3,80.7,30.56,ESE,112,0.0,0.0,98,0.00,CLR,,0.00,WeatherDisplay:10.37,2013-06-24 07:51:00,
2013-06-24 03:57:00,81.3,80.7,30.59,ESE,112,0.0,0.0,98,0.00,CLR,,0.00,WeatherDisplay:10.37,2013-06-24 07:57:00,
2013-06-24 04:02:00,81.3,80.7,30.59,ESE,112,3.5,3.5,98,0.00,CLR,,0.00,WeatherDisplay:10.37,2013-06-24 08:02:00,
2013-06-24 04:07:00,81.3,80.7,30.56,ESE,112,2.7,2.7,98,0.00,CLR,,0.00,WeatherDisplay:10.37,2013-06-24 08:07:00,
2013-06-24 04:12:00,81.3,80.7,30.56,East,90,0.0,0.0,98,0.00,CLR,,0.00,WeatherDisplay:10.37,2013-06-24 08:12:00,
2013-06-24 04:17:00,81.3,80.7,30.56,ESE,112,0.0,0.0,98,0.00,CLR,,0.00,WeatherDisplay:10.37,2013-06-24 08:17:00,
2013-06-24 04:23:00,81.3,80.7,30.25,ESE,112,0.0,0.0,98,0.00,CLR,,0.00,WeatherDisplay:10.37,2013-06-24 08:23:00,
2013-06-24 04:28:00,81.3,80.7,30.25,ESE,112,1.1,1.1,98,0.00,CLR,,0.00,WeatherDisplay:10.37,2013-06-24 08:28:00,
2013-06-24 04:33:00,81.3,80.7,30.04,ESE,112,0.0,0.0,98,0.00,CLR,,0.00,WeatherDisplay:10.37,2013-06-24 08:33:00,
2013-06-24 04:38:00,81.3,80.7,30.04,ESE,112,2.3,0.0,98,0.00,CLR,,0.00,WeatherDisplay:10.37,2013-06-24 08:38:00,
2013-06-24 04:43:00,81.3,80.7,29.92,ESE,112,2.3,2.3,98,0.00,CLR,,0.00,WeatherDisplay:10.37,2013-06-24 08:43:00,
2013-06-24 04:48:00,81.3,80.7,29.92,East,90,1.1,0.0,98,0.00,CLR,,0.00,WeatherDisplay:10.37,2013-06-24 08:48:00,
2013-06-24 04:53:00,81.3,80.7,29.92,ESE,112,0.0,0.0,98,0.00,CLR,,0.00,WeatherDisplay:10.37,2013-06-24 08:53:00,
2013-06-24 04:59:00,81.3,80.7,29.83,ESE,112,0.0,0.0,98,0.00,CLR,,0.00,WeatherDisplay:10.37,2013-06-24 08:59:00,
2013-06-24 05:04:00,81.3,80.7,29.83,ESE,112,0.0,0.0,98,0.00,CLR,,0.00,WeatherDisplay:10.37,2013-06-24 09:04:00,
2013-06-24 05:10:00,81.3,80.7,29.77,ESE,112,0.0,0.0,98,0.00,CLR,,0.00,WeatherDisplay:10.37,2013-06-24 09:10:00,
2013-06-24 05:16:00,81.1,80.5,29.77,ESE,112,0.0,0.0,98,0.00,CLR,,0.00,WeatherDisplay:10.37,2013-06-24 09:16:00,
2013-06-24 05:21:00,81.1,80.5,29.76,ESE,112,0.0,0.0,98,0.00,CLR,,0.00,WeatherDisplay:10.37,2013-06-24 09:21:00,
2013-06-24 05:26:00,81.1,80.5,29.76,East,90,0.0,0.0,98,0.00,CLR,,0.00,WeatherDisplay:10.37,2013-06-24 09:26:00,
2013-06-24 05:32:00,81.0,80.4,30.04,ESE,112,0.0,0.0,98,0.00,CLR,,0.00,WeatherDisplay:10.37,2013-06-24 09:32:00,
2013-06-24 05:37:00,81.0,80.4,30.04,SE,135,1.1,1.1,98,0.00,CLR,,0.00,WeatherDisplay:10.37,2013-06-24 09:37:00,
2013-06-24 05:42:00,81.0,80.4,30.26,ESE,112,0.0,0.0,98,0.00,CLR,,0.00,WeatherDisplay:10.37,2013-06-24 09:42:00,
2013-06-24 05:48:00,81.0,80.4,30.26,ESE,112,0.0,0.0,98,0.00,CLR,,0.00,WeatherDisplay:10.37,2013-06-24 09:48:00,
2013-06-24 05:53:00,81.0,80.4,30.26,ESE,112,0.0,0.0,98,0.00,CLR,,0.00,WeatherDisplay:10.37,2013-06-24 09:53:00,
2013-06-24 05:58:00,81.0,80.4,30.39,ESE,112,0.0,0.0,98,0.00,CLR,,0.00,WeatherDisplay:10.37,2013-06-24 09:58:00,
2013-06-24 06:03:00,81.1,80.5,30.39,ESE,112,0.0,0.0,98,0.00,CLR,,0.00,WeatherDisplay:10.37,2013-06-24 10:03:00,
2013-06-24 06:09:00,81.1,80.5,30.47,ESE,112,0.0,0.0,98,0.00,CLR,,0.00,WeatherDisplay:10.37,2013-06-24 10:09:00,
2013-06-24 06:14:00,81.1,80.5,30.47,SE,135,0.0,0.0,98,0.00,CLR,,0.00,WeatherDisplay:10.37,2013-06-24 10:14:00,
2013-06-24 06:19:00,81.3,80.7,30.51,East,90,0.0,0.0,98,0.00,CLR,,0.00,WeatherDisplay:10.37,2013-06-24 10:19:00,
2013-06-24 06:24:00,81.3,80.7,30.51,ESE,112,0.0,0.0,98,0.00,CLR,,0.00,WeatherDisplay:10.37,2013-06-24 10:24:00,
2013-06-24 06:29:00,81.3,80.7,30.51,ESE,112,0.0,0.0,98,0.00,CLR,,0.00,WeatherDisplay:10.37,2013-06-24 10:29:00,
2013-06-24 06:34:00,81.3,80.7,30.56,East,90,0.0,0.0,98,0.00,CLR,,0.00,WeatherDisplay:10.37,2013-06-24 10:34:00,
2013-06-24 06:39:00,81.3,80.7,30.56,East,90,0.0,0.0,98,0.00,CLR,,0.00,WeatherDisplay:10.37,2013-06-24 10:39:00,
2013-06-24 06:44:00,81.3,80.7,30.56,East,90,0.0,0.0,98,0.00,CLR,,0.00,WeatherDisplay:10.37,2013-06-24 10:44:00,
2013-06-24 06:49:00,81.3,80.7,30.56,East,90,0.0,0.0,98,0.00,CLR,,0.00,WeatherDisplay:10.37,2013-06-24 10:49:00,
2013-06-24 06:54:00,81.3,80.7,30.56,East,90,0.0,0.0,98,0.00,CLR,,0.00,WeatherDisplay:10.37,2013-06-24 10:54:00,
2013-06-24 06:59:00,81.3,80.7,30.56,East,90,0.0,0.0,98,0.00,CLR,,0.00,WeatherDisplay:10.37,2013-06-24 10:59:00,
2013-06-24 07:05:00,81.3,80.7,30.56,East,90,0.0,0.0,98,0.00,CLR,,0.00,WeatherDisplay:10.37,2013-06-24 11:05:00,
2013-06-24 07:10:00,81.3,80.7,30.56,East,90,0.0,0.0,98,0.00,CLR,,0.00,WeatherDisplay:10.37,2013-06-24 11:10:00,
2013-06-24 07:15:00,81.3,80.7,30.56,East,90,0.0,0.0,98,0.00,CLR,,0.00,WeatherDisplay:10.37,2013-06-24 11:15:00,
2013-06-24 07:20:00,81.3,80.7,30.56,East,90,0.0,0.0,98,0.00,CLR,,0.00,WeatherDisplay:10.37,2013-06-24 11:20:00,
2013-06-24 07:25:00,81.3,80.7,30.56,East,90,0.0,0.0,98,0.00,CLR,,0.00,WeatherDisplay:10.37,2013-06-24 11:25:00,
2013-06-24 07:30:00,81.3,80.7,30.56,East,90,0.0,0.0,98,0.00,CLR,,0.00,WeatherDisplay:10.37,2013-06-24 11:30:00,
2013-06-24 07:36:00,81.3,80.7,30.56,East,90,0.0,0.0,98,0.00,CLR,,0.00,WeatherDisplay:10.37,2013-06-24 11:36:00,
2013-06-24 07:41:00,81.3,80.7,30.56,East,90,0.0,0.0,98,0.00,CLR,,0.00,WeatherDisplay:10.37,2013-06-24 11:41:00,
2013-06-24 07:46:00,81.3,80.7,30.56,East,90,0.0,0.0,98,0.00,CLR,,0.00,WeatherDisplay:10.37,2013-06-24 11:46:00,
2013-06-24 07:51:00,81.3,80.7,30.56,East,90,0.0,0.0,98,0.00,CLR,,0.00,WeatherDisplay:10.37,2013-06-24 11:51:00,
2013-06-24 07:56:00,81.3,80.7,30.56,East,90,0.0,0.0,98,0.00,CLR,,0.00,WeatherDisplay:10.37,2013-06-24 11:56:00,
2013-06-24 08:02:00,81.3,80.7,30.56,East,90,0.0,0.0,98,0.00,CLR,,0.00,WeatherDisplay:10.37,2013-06-24 12:02:00,
2013-06-24 08:07:00,81.3,80.7,30.56,East,90,0.0,0.0,98,0.00,CLR,,0.00,WeatherDisplay:10.37,2013-06-24 12:07:00,
2013-06-24 08:12:00,81.3,80.7,30.56,East,90,0.0,0.0,98,0.00,CLR,,0.00,WeatherDisplay:10.37,2013-06-24 12:12:00,
2013-06-24 08:17:00,81.3,80.7,30.56,East,90,0.0,0.0,98,0.00,CLR,,0.00,WeatherDisplay:10.37,2013-06-24 12:17:00,
2013-06-24 08:22:00,81.3,80.7,30.56,East,90,0.0,0.0,98,0.00,CLR,,0.00,WeatherDisplay:10.37,2013-06-24 12:22:00,
2013-06-24 08:27:00,81.3,80.7,30.56,East,90,0.0,0.0,98,0.00,CLR,,0.00,WeatherDisplay:10.37,2013-06-24 12:27:00,
2013-06-24 08:32:00,81.3,80.7,30.56,East,90,0.0,0.0,98,0.00,CLR,,0.00,WeatherDisplay:10.37,2013-06-24 12:32:00,
2013-06-24 08:37:00,81.3,80.7,30.56,East,90,0.0,0.0,98,0.00,CLR,,0.00,WeatherDisplay:10.37,2013-06-24 12:37:00,
2013-06-24 08:42:00,81.3,80.7,30.56,East,90,0.0,0.0,98,0.00,CLR,,0.00,WeatherDisplay:10.37,2013-06-24 12:42:00,
2013-06-24 08:48:00,81.3,80.7,30.56,East,90,0.0,0.0,98,0.00,CLR,,0.00,WeatherDisplay:10.37,2013-06-24 12:48:00,
2013-06-24 08:53:00,81.3,80.7,30.56,East,90,0.0,0.0,98,0.00,CLR,,0.00,WeatherDisplay:10.37,2013-06-24 12:53:00,
2013-06-24 08:58:00,81.3,80.7,30.56,East,90,0.0,0.0,98,0.00,CLR,,0.00,WeatherDisplay:10.37,2013-06-24 12:58:00,
2013-06-24 09:04:00,81.3,80.7,30.56,East,90,0.0,0.0,98,0.00,CLR,,0.00,WeatherDisplay:10.37,2013-06-24 13:04:00,
2013-06-24 09:09:00,81.3,80.7,30.56,East,90,0.0,0.0,98,0.00,CLR,,0.00,WeatherDisplay:10.37,2013-06-24 13:09:00,
2013-06-24 09:14:00,81.3,80.7,30.56,East,90,0.0,0.0,98,0.00,CLR,,0.00,WeatherDisplay:10.37,2013-06-24 13:14:00,
2013-06-24 09:19:00,81.3,80.7,30.56,East,90,0.0,0.0,98,0.00,CLR,,0.00,WeatherDisplay:10.37,2013-06-24 13:19:00,
2013-06-24 09:24:00,81.3,80.7,30.56,East,90,0.0,0.0,98,0.00,CLR,,0.00,WeatherDisplay:10.37,2013-06-24 13:24:00,
2013-06-24 09:29:00,81.3,80.7,30.56,East,90,0.0,0.0,98,0.00,CLR,,0.00,WeatherDisplay:10.37,2013-06-24 13:29:00,
2013-06-24 09:34:00,81.3,80.7,30.56,East,90,0.0,0.0,98,0.00,CLR,,0.00,WeatherDisplay:10.37,2013-06-24 13:34:00,
2013-06-24 09:40:00,81.3,80.7,30.56,East,90,0.0,0.0,98,0.00,CLR,,0.00,WeatherDisplay:10.37,2013-06-24 13:40:00,
2013-06-24 09:46:00,81.3,80.7,30.56,East,90,0.0,0.0,98,0.00,CLR,,0.00,WeatherDisplay:10.37,2013-06-24 13:46:00,
2013-06-24 09:51:00,81.3,80.7,30.56,East,90,0.0,0.0,98,0.00,CLR,,0.00,WeatherDisplay:10.37,2013-06-24 13:51:00,
2013-06-24 09:56:00,81.3,80.7,30.56,East,90,0.0,0.0,98,0.00,CLR,,0.00,WeatherDisplay:10.37,2013-06-24 13:56:00,
2013-06-24 10:01:00,81.3,80.7,30.56,East,90,0.0,0.0,98,0.00,CLR,,0.00,WeatherDisplay:10.37,2013-06-24 14:01:00,
2013-06-24 10:06:00,81.3,80.7,30.56,East,90,0.0,0.0,98,0.00,CLR,,0.00,WeatherDisplay:10.37,2013-06-24 14:06:00,
2013-06-24 10:11:00,81.3,80.7,30.56,East,90,0.0,0.0,98,0.00,CLR,,0.00,WeatherDisplay:10.37,2013-06-24 14:11:00,
2013-06-24 10:16:00,81.3,80.7,30.56,East,90,0.0,0.0,98,0.00,CLR,,0.00,WeatherDisplay:10.37,2013-06-24 14:16:00,
2013-06-24 10:21:00,81.3,80.7,30.56,East,90,0.0,0.0,98,0.00,CLR,,0.00,WeatherDisplay:10.37,2013-06-24 14:21:00,
2013-06-24 10:27:00,81.3,80.7,30.56,East,90,0.0,0.0,98,0.00,CLR,,0.00,WeatherDisplay:10.37,2013-06-24 14:27:00,
2013-06-24 10:32:00,81.3,80.7,30.56,East,90,0.0,0.0,98,0.00,CLR,,0.00,WeatherDisplay:10.37,2013-06-24 14:32:00,
2013-06-24 10:37:00,81.3,80.7,30.56,East,90,0.0,0.0,98,0.00,CLR,,0.00,WeatherDisplay:10.37,2013-06-24 14:37:00,
2013-06-24 10:42:00,81.3,80.7,30.56,East,90,0.0,0.0,98,0.00,CLR,,0.00,WeatherDisplay:10.37,2013-06-24 14:42:00,
2013-06-24 10:47:00,81.3,80.7,30.56,East,90,0.0,0.0,98,0.00,CLR,,0.00,WeatherDisplay:10.37,2013-06-24 14:47:00,
2013-06-24 10:52:00,81.3,80.7,30.56,East,90,0.0,0.0,98,0.00,CLR,,0.00,WeatherDisplay:10.37,2013-06-24 14:52:00,
2013-06-24 10:57:00,81.3,80.7,30.56,East,90,0.0,0.0,98,0.00,CLR,,0.00,WeatherDisplay:10.37,2013-06-24 14:57:00,
2013-06-24 11:03:00,81.3,80.7,30.56,East,90,0.0,0.0,98,0.00,CLR,,0.00,WeatherDisplay:10.37,2013-06-24 15:03:00,
2013-06-24 11:08:00,81.3,80.7,30.56,East,90,0.0,0.0,98,0.00,CLR,,0.00,WeatherDisplay:10.37,2013-06-24 15:08:00,
2013-06-24 11:13:00,81.3,80.7,30.56,East,90,0.0,0.0,98,0.00,CLR,,0.00,WeatherDisplay:10.37,2013-06-24 15:13:00,
2013-06-24 11:18:00,81.3,80.7,30.56,East,90,0.0,0.0,98,0.00,CLR,,0.00,WeatherDisplay:10.37,2013-06-24 15:18:00,
2013-06-24 11:24:00,81.3,80.7,30.56,East,90,0.0,0.0,98,0.00,CLR,,0.00,WeatherDisplay:10.37,2013-06-24 15:24:00,
2013-06-24 11:29:00,81.3,80.7,30.56,East,90,0.0,0.0,98,0.00,CLR,,0.00,WeatherDisplay:10.37,2013-06-24 15:29:00,
2013-06-24 11:34:00,81.3,80.7,30.56,East,90,0.0,0.0,98,0.00,CLR,,0.00,WeatherDisplay:10.37,2013-06-24 15:34:00,
2013-06-24 11:39:00,81.3,80.7,30.56,East,90,0.0,0.0,98,0.00,CLR,,0.00,WeatherDisplay:10.37,2013-06-24 15:39:00,
2013-06-24 11:44:00,81.3,80.7,30.56,East,90,0.0,0.0,98,0.00,CLR,,0.00,WeatherDisplay:10.37,2013-06-24 15:44:00,
2013-06-24 11:50:00,81.3,80.7,30.56,East,90,0.0,0.0,98,0.00,CLR,,0.00,WeatherDisplay:10.37,2013-06-24 15:50:00,
2013-06-24 11:55:00,81.3,80.7,30.56,East,90,0.0,0.0,98,0.00,CLR,,0.00,WeatherDisplay:10.37,2013-06-24 15:55:00,
2013-06-24 12:00:00,81.3,80.7,30.56,East,90,0.0,0.0,98,0.00,CLR,,0.00,WeatherDisplay:10.37,2013-06-24 16:00:00,
2013-06-24 12:05:00,81.3,80.7,30.56,East,90,0.0,0.0,98,0.00,CLR,,0.00,WeatherDisplay:10.37,2013-06-24 16:05:00,
2013-06-24 12:10:00,81.3,80.7,30.56,East,90,0.0,0.0,98,0.00,CLR,,0.00,WeatherDisplay:10.37,2013-06-24 16:10:00,
2013-06-24 12:15:00,81.3,80.7,30.56,East,90,0.0,0.0,98,0.00,CLR,,0.00,WeatherDisplay:10.37,2013-06-24 16:15:00,
2013-06-24 12:20:00,81.3,80.7,30.56,East,90,0.0,0.0,98,0.00,CLR,,0.00,WeatherDisplay:10.37,2013-06-24 16:20:00,
2013-06-24 12:25:00,81.3,80.7,30.56,East,90,0.0,0.0,98,0.00,CLR,,0.00,WeatherDisplay:10.37,2013-06-24 16:25:00,
2013-06-24 12:30:00,81.3,80.7,30.56,East,90,0.0,0.0,98,0.00,CLR,,0.00,WeatherDisplay:10.37,2013-06-24 16:30:00,
2013-06-24 12:36:00,81.3,80.7,30.56,East,90,0.0,0.0,98,0.00,CLR,,0.00,WeatherDisplay:10.37,2013-06-24 16:36:00,
2013-06-24 12:41:00,81.3,80.7,30.56,East,90,0.0,0.0,98,0.00,CLR,,0.00,WeatherDisplay:10.37,2013-06-24 16:41:00,
2013-06-24 12:47:00,81.3,80.7,30.56,East,90,0.0,0.0,98,0.00,CLR,,0.00,WeatherDisplay:10.37,2013-06-24 16:47:00,
2013-06-24 12:52:00,81.3,80.7,30.56,East,90,0.0,0.0,98,0.00,CLR,,0.00,WeatherDisplay:10.37,2013-06-24 16:52:00,
2013-06-24 12:57:00,81.3,80.7,30.56,East,90,0.0,0.0,98,0.00,CLR,,0.00,WeatherDisplay:10.37,2013-06-24 16:57:00,
2013-06-24 13:02:00,81.3,80.7,30.56,East,90,0.0,0.0,98,0.00,CLR,,0.00,WeatherDisplay:10.37,2013-06-24 17:02:00,
2013-06-24 13:08:00,81.3,80.7,30.56,East,90,0.0,0.0,98,0.00,CLR,,0.00,WeatherDisplay:10.37,2013-06-24 17:08:00,
2013-06-24 13:13:00,81.3,80.7,30.56,East,90,0.0,0.0,98,0.00,CLR,,0.00,WeatherDisplay:10.37,2013-06-24 17:13:00,
2013-06-24 13:18:00,81.3,80.7,30.56,East,90,0.0,0.0,98,0.00,CLR,,0.00,WeatherDisplay:10.37,2013-06-24 17:18:00,
2013-06-24 13:23:00,81.3,80.7,30.56,East,90,0.0,0.0,98,0.00,CLR,,0.00,WeatherDisplay:10.37,2013-06-24 17:23:00,
2013-06-24 13:28:00,81.3,80.7,30.56,East,90,0.0,0.0,98,0.00,CLR,,0.00,WeatherDisplay:10.37,2013-06-24 17:28:00,
2013-06-24 13:33:00,81.3,80.7,30.56,East,90,0.0,0.0,98,0.00,CLR,,0.00,WeatherDisplay:10.37,2013-06-24 17:33:00,
2013-06-24 13:38:00,81.3,80.7,30.56,East,90,0.0,0.0,98,0.00,CLR,,0.00,WeatherDisplay:10.37,2013-06-24 17:38:00,
2013-06-24 13:43:00,81.3,80.7,30.56,East,90,0.0,0.0,98,0.00,CLR,,0.00,WeatherDisplay:10.37,2013-06-24 17:43:00,
2013-06-24 13:48:00,81.3,80.7,30.56,East,90,0.0,0.0,98,0.00,CLR,,0.00,WeatherDisplay:10.37,2013-06-24 17:48:00,
2013-06-24 13:53:00,81.3,80.7,30.56,East,90,0.0,0.0,98,0.00,CLR,,0.00,WeatherDisplay:10.37,2013-06-24 17:53:00,
2013-06-24 13:58:00,81.3,80.7,30.56,East,90,0.0,0.0,98,0.00,CLR,,0.00,WeatherDisplay:10.37,2013-06-24 17:58:00,
2013-06-24 14:04:00,81.3,80.7,30.56,East,90,0.0,0.0,98,0.00,CLR,,0.00,WeatherDisplay:10.37,2013-06-24 18:04:00,
2013-06-24 14:10:00,81.3,80.7,30.56,East,90,0.0,0.0,98,0.00,CLR,,0.00,WeatherDisplay:10.37,2013-06-24 18:10:00,
2013-06-24 14:15:00,81.3,80.7,30.56,East,90,0.0,0.0,98,0.00,CLR,,0.00,WeatherDisplay:10.37,2013-06-24 18:15:00,
2013-06-24 14:20:00,81.3,80.7,30.56,East,90,0.0,0.0,98,0.00,CLR,,0.00,WeatherDisplay:10.37,2013-06-24 18:20:00,
2013-06-24 14:25:00,81.3,80.7,30.56,East,90,0.0,0.0,98,0.00,CLR,,0.00,WeatherDisplay:10.37,2013-06-24 18:25:00,
2013-06-24 14:30:00,81.3,80.7,30.56,East,90,0.0,0.0,98,0.00,CLR,,0.00,WeatherDisplay:10.37,2013-06-24 18:30:00,
2013-06-24 14:36:00,81.3,80.7,30.56,East,90,0.0,0.0,98,0.00,CLR,,0.00,WeatherDisplay:10.37,2013-06-24 18:36:00,
2013-06-24 14:41:00,81.3,80.7,30.56,East,90,0.0,0.0,98,0.00,CLR,,0.00,WeatherDisplay:10.37,2013-06-24 18:41:00,
2013-06-24 14:46:00,81.3,80.7,30.56,East,90,0.0,0.0,98,0.00,CLR,,0.00,WeatherDisplay:10.37,2013-06-24 18:46:00,
2013-06-24 14:51:00,81.3,80.7,30.56,East,90,0.0,0.0,98,0.00,CLR,,0.00,WeatherDisplay:10.37,2013-06-24 18:51:00,
2013-06-24 14:56:00,81.3,80.7,30.56,East,90,0.0,0.0,98,0.00,CLR,,0.00,WeatherDisplay:10.37,2013-06-24 18:56:00,
2013-06-24 15:01:00,81.3,80.7,30.56,East,90,0.0,0.0,98,0.00,CLR,,0.00,WeatherDisplay:10.37,2013-06-24 19:01:00,
2013-06-24 15:07:00,81.3,80.7,30.56,East,90,0.0,0.0,98,0.00,CLR,,0.00,WeatherDisplay:10.37,2013-06-24 19:07:00,
2013-06-24 15:12:00,81.3,80.7,30.56,East,90,0.0,0.0,98,0.00,CLR,,0.00,WeatherDisplay:10.37,2013-06-24 19:12:00,
2013-06-24 15:18:00,81.3,80.7,30.56,East,90,0.0,0.0,98,0.00,CLR,,0.00,WeatherDisplay:10.37,2013-06-24 19:18:00,
2013-06-24 15:23:00,81.3,80.7,30.56,East,90,0.0,0.0,98,0.00,CLR,,0.00,WeatherDisplay:10.37,2013-06-24 19:23:00,
2013-06-24 15:29:00,81.3,80.7,30.56,East,90,0.0,0.0,98,0.00,CLR,,0.00,WeatherDisplay:10.37,2013-06-24 19:29:00,
2013-06-24 15:34:00,81.3,80.7,30.56,East,90,0.0,0.0,98,0.00,CLR,,0.00,WeatherDisplay:10.37,2013-06-24 19:34:00,
2013-06-24 15:39:00,81.3,80.7,30.56,East,90,0.0,0.0,98,0.00,CLR,,0.00,WeatherDisplay:10.37,2013-06-24 19:39:00,
2013-06-24 15:44:00,81.3,80.7,30.56,East,90,0.0,0.0,98,0.00,CLR,,0.00,WeatherDisplay:10.37,2013-06-24 19:44:00,
2013-06-24 15:50:00,81.3,80.7,30.56,East,90,0.0,0.0,98,0.00,CLR,,0.00,WeatherDisplay:10.37,2013-06-24 19:50:00,
2013-06-24 15:55:00,81.3,80.7,30.56,East,90,0.0,0.0,98,0.00,CLR,,0.00,WeatherDisplay:10.37,2013-06-24 19:55:00,
2013-06-24 16:00:00,81.3,80.7,30.56,East,90,0.0,0.0,98,0.00,CLR,,0.00,WeatherDisplay:10.37,2013-06-24 20:00:00,
2013-06-24 16:05:00,81.3,80.7,30.56,East,90,0.0,0.0,98,0.00,CLR,,0.00,WeatherDisplay:10.37,2013-06-24 20:05:00,
2013-06-24 16:10:00,81.3,80.7,30.56,East,90,0.0,0.0,98,0.00,CLR,,0.00,WeatherDisplay:10.37,2013-06-24 20:10:00,
2013-06-24 16:15:00,81.3,80.7,30.56,East,90,0.0,0.0,98,0.00,CLR,,0.00,WeatherDisplay:10.37,2013-06-24 20:15:00,
2013-06-24 16:20:00,81.3,80.7,30.56,East,90,0.0,0.0,98,0.00,CLR,,0.00,WeatherDisplay:10.37,2013-06-24 20:20:00,
2013-06-24 16:25:00,81.3,80.7,30.56,East,90,0.0,0.0,98,0.00,CLR,,0.00,WeatherDisplay:10.37,2013-06-24 20:25:00,
2013-06-24 16:31:00,81.3,80.7,30.56,East,90,0.0,0.0,98,0.00,CLR,,0.00,WeatherDisplay:10.37,2013-06-24 20:31:00,
2013-06-24 16:36:00,81.3,80.7,30.56,East,90,0.0,0.0,98,0.00,CLR,,0.00,WeatherDisplay:10.37,2013-06-24 20:36:00,
2013-06-24 16:41:00,81.3,80.7,30.56,East,90,0.0,0.0,98,0.00,CLR,,0.00,WeatherDisplay:10.37,2013-06-24 20:41:00,
2013-06-24 16:46:00,81.3,80.7,30.56,East,90,0.0,0.0,98,0.00,CLR,,0.00,WeatherDisplay:10.37,2013-06-24 20:46:00,
2013-06-24 16:51:00,81.3,80.7,30.56,East,90,0.0,0.0,98,0.00,CLR,,0.00,WeatherDisplay:10.37,2013-06-24 20:51:00,
2013-06-24 16:56:00,81.3,80.7,30.56,East,90,0.0,0.0,98,0.00,CLR,,0.00,WeatherDisplay:10.37,2013-06-24 20:56:00,
2013-06-24 17:02:00,81.3,80.7,30.56,East,90,0.0,0.0,98,0.00,CLR,,0.00,WeatherDisplay:10.37,2013-06-24 21:02:00,
2013-06-24 17:07:00,81.3,80.7,30.56,East,90,0.0,0.0,98,0.00,CLR,,0.00,WeatherDisplay:10.37,2013-06-24 21:07:00,
2013-06-24 17:12:00,81.3,80.7,30.56,East,90,0.0,0.0,98,0.00,CLR,,0.00,WeatherDisplay:10.37,2013-06-24 21:12:00,
2013-06-24 17:17:00,81.3,80.7,30.56,East,90,0.0,0.0,98,0.00,CLR,,0.00,WeatherDisplay:10.37,2013-06-24 21:17:00,
2013-06-24 17:22:00,81.3,80.7,30.56,East,90,0.0,0.0,98,0.00,CLR,,0.00,WeatherDisplay:10.37,2013-06-24 21:22:00,
2013-06-24 17:28:00,81.3,80.7,30.56,East,90,0.0,0.0,98,0.00,CLR,,0.00,WeatherDisplay:10.37,2013-06-24 21:28:00,
2013-06-24 17:33:00,81.3,80.7,30.56,East,90,0.0,0.0,98,0.00,CLR,,0.00,WeatherDisplay:10.37,2013-06-24 21:33:00,
2013-06-24 17:38:00,81.3,80.7,30.56,East,90,0.0,0.0,98,0.00,CLR,,0.00,WeatherDisplay:10.37,2013-06-24 21:38:00,
2013-06-24 17:43:00,81.3,80.7,30.56,East,90,0.0,0.0,98,0.00,CLR,,0.00,WeatherDisplay:10.37,2013-06-24 21:43:00,
2013-06-24 17:48:00,81.3,80.7,30.56,East,90,0.0,0.0,98,0.00,CLR,,0.00,WeatherDisplay:10.37,2013-06-24 21:48:00,
2013-06-24 17:53:00,81.3,80.7,30.56,East,90,0.0,0.0,98,0.00,CLR,,0.00,WeatherDisplay:10.37,2013-06-24 21:53:00,
2013-06-24 17:58:00,81.3,80.7,30.56,East,90,0.0,0.0,98,0.00,CLR,,0.00,WeatherDisplay:10.37,2013-06-24 21:58:00,
2013-06-24 18:03:00,81.3,80.7,30.56,East,90,0.0,0.0,98,0.00,CLR,,0.00,WeatherDisplay:10.37,2013-06-24 22:03:00,
2013-06-24 18:08:00,81.3,80.7,30.56,East,90,0.0,0.0,98,0.00,CLR,,0.00,WeatherDisplay:10.37,2013-06-24 22:08:00,
2013-06-24 18:14:00,81.3,80.7,30.56,East,90,0.0,0.0,98,0.00,CLR,,0.00,WeatherDisplay:10.37,2013-06-24 22:14:00,
2013-06-24 18:19:00,81.3,80.7,30.56,East,90,0.0,0.0,98,0.00,CLR,,0.00,WeatherDisplay:10.37,2013-06-24 22:19:00,
2013-06-24 18:24:00,81.3,80.7,30.56,East,90,0.0,0.0,98,0.00,CLR,,0.00,WeatherDisplay:10.37,2013-06-24 22:24:00,
2013-06-24 18:30:00,81.3,80.7,30.56,East,90,0.0,0.0,98,0.00,CLR,,0.00,WeatherDisplay:10.37,2013-06-24 22:30:00,
2013-06-24 18:35:00,81.3,80.7,30.56,East,90,0.0,0.0,98,0.00,CLR,,0.00,WeatherDisplay:10.37,2013-06-24 22:35:00,
2013-06-24 18:40:00,81.3,80.7,30.56,East,90,0.0,0.0,98,0.00,CLR,,0.00,WeatherDisplay:10.37,2013-06-24 22:40:00,
2013-06-24 18:45:00,81.3,80.7,30.56,East,90,0.0,0.0,98,0.00,CLR,,0.00,WeatherDisplay:10.37,2013-06-24 22:45:00,
2013-06-24 18:50:00,81.3,80.7,30.56,East,90,0.0,0.0,98,0.00,CLR,,0.00,WeatherDisplay:10.37,2013-06-24 22:50:00,
2013-06-24 18:55:00,81.3,80.7,30.56,East,90,0.0,0.0,98,0.00,CLR,,0.00,WeatherDisplay:10.37,2013-06-24 22:55:00,
2013-06-24 19:00:00,81.3,80.7,30.56,East,90,0.0,0.0,98,0.00,CLR,,0.00,WeatherDisplay:10.37,2013-06-24 23:00:00,
2013-06-24 19:05:00,81.3,80.7,30.56,East,90,0.0,0.0,98,0.00,CLR,,0.00,WeatherDisplay:10.37,2013-06-24 23:05:00,
2013-06-24 19:10:00,81.3,80.7,30.56,East,90,0.0,0.0,98,0.00,CLR,,0.00,WeatherDisplay:10.37,2013-06-24 23:10:00,
2013-06-24 19:15:00,81.3,80.7,30.56,East,90,0.0,0.0,98,0.00,CLR,,0.00,WeatherDisplay:10.37,2013-06-24 23:15:00,
2013-06-24 19:20:00,81.3,80.7,30.56,East,90,0.0,0.0,98,0.00,CLR,,0.00,WeatherDisplay:10.37,2013-06-24 23:20:00,
2013-06-24 19:26:00,81.3,80.7,30.56,East,90,0.0,0.0,98,0.00,CLR,,0.00,WeatherDisplay:10.37,2013-06-24 23:26:00,
2013-06-24 19:31:00,81.3,80.7,30.56,East,90,0.0,0.0,98,0.00,CLR,,0.00,WeatherDisplay:10.37,2013-06-24 23:31:00,
2013-06-24 19:37:00,81.3,80.7,30.56,East,90,0.0,0.0,98,0.00,CLR,,0.00,WeatherDisplay:10.37,2013-06-24 23:37:00,
2013-06-24 19:42:00,81.3,80.7,30.56,East,90,0.0,0.0,98,0.00,CLR,,0.00,WeatherDisplay:10.37,2013-06-24 23:42:00,
2013-06-24 19:47:00,81.3,80.7,30.56,East,90,0.0,0.0,98,0.00,CLR,,0.00,WeatherDisplay:10.37,2013-06-24 23:47:00,
2013-06-24 19:52:00,81.3,80.7,30.56,East,90,0.0,0.0,98,0.00,CLR,,0.00,WeatherDisplay:10.37,2013-06-24 23:52:00,
2013-06-24 19:57:00,81.3,80.7,30.56,East,90,0.0,0.0,98,0.00,CLR,,0.00,WeatherDisplay:10.37,2013-06-24 23:57:00,
2013-06-24 20:02:00,81.3,80.7,30.56,East,90,0.0,0.0,98,0.00,CLR,,0.00,WeatherDisplay:10.37,2013-06-25 00:02:00,
2013-06-24 20:07:00,81.3,80.7,30.56,East,90,0.0,0.0,98,0.00,CLR,,0.00,WeatherDisplay:10.37,2013-06-25 00:07:00,
2013-06-24 20:12:00,81.3,80.7,30.56,East,90,0.0,0.0,98,0.00,CLR,,0.00,WeatherDisplay:10.37,2013-06-25 00:12:00,
2013-06-24 20:17:00,81.3,80.7,30.56,East,90,0.0,0.0,98,0.00,CLR,,0.00,WeatherDisplay:10.37,2013-06-25 00:17:00,
2013-06-24 20:23:00,81.3,80.7,30.56,East,90,0.0,0.0,98,0.00,CLR,,0.00,WeatherDisplay:10.37,2013-06-25 00:23:00,
2013-06-24 20:28:00,81.3,80.7,30.56,East,90,0.0,0.0,98,0.00,CLR,,0.00,WeatherDisplay:10.37,2013-06-25 00:28:00,
2013-06-24 20:33:00,81.3,80.7,30.56,East,90,0.0,0.0,98,0.00,CLR,,0.00,WeatherDisplay:10.37,2013-06-25 00:33:00,
2013-06-24 20:38:00,81.3,80.7,30.56,East,90,0.0,0.0,98,0.00,CLR,,0.00,WeatherDisplay:10.37,2013-06-25 00:38:00,
2013-06-24 20:43:00,81.3,80.7,30.56,East,90,0.0,0.0,98,0.00,CLR,,0.00,WeatherDisplay:10.37,2013-06-25 00:43:00,
2013-06-24 20:48:00,81.3,80.7,30.56,East,90,0.0,0.0,98,0.00,CLR,,0.00,WeatherDisplay:10.37,2013-06-25 00:48:00,
2013-06-24 20:53:00,81.3,80.7,30.56,East,90,0.0,0.0,98,0.00,CLR,,0.00,WeatherDisplay:10.37,2013-06-25 00:53:00,
2013-06-24 20:58:00,81.3,80.7,30.56,East,90,0.0,0.0,98,0.00,CLR,,0.00,WeatherDisplay:10.37,2013-06-25 00:58:00,
2013-06-24 21:03:00,81.3,80.7,30.56,East,90,0.0,0.0,98,0.00,CLR,,0.00,WeatherDisplay:10.37,2013-06-25 01:03:00,
2013-06-24 21:08:00,81.3,80.7,30.56,East,90,0.0,0.0,98,0.00,CLR,,0.00,WeatherDisplay:10.37,2013-06-25 01:08:00,
2013-06-24 21:13:00,81.3,80.7,30.56,East,90,0.0,0.0,98,0.00,CLR,,0.00,WeatherDisplay:10.37,2013-06-25 01:13:00,
2013-06-24 21:18:00,81.3,80.7,30.56,East,90,0.0,0.0,98,0.00,CLR,,0.00,WeatherDisplay:10.37,2013-06-25 01:18:00,
2013-06-24 21:24:00,81.3,80.7,30.56,East,90,0.0,0.0,98,0.00,CLR,,0.00,WeatherDisplay:10.37,2013-06-25 01:24:00,
2013-06-24 21:29:00,81.3,80.7,30.56,East,90,0.0,0.0,98,0.00,CLR,,0.00,WeatherDisplay:10.37,2013-06-25 01:29:00,
2013-06-24 21:34:00,81.3,80.7,30.56,East,90,0.0,0.0,98,0.00,CLR,,0.00,WeatherDisplay:10.37,2013-06-25 01:34:00,
2013-06-24 21:39:00,81.3,80.7,30.56,East,90,0.0,0.0,98,0.00,CLR,,0.00,WeatherDisplay:10.37,2013-06-25 01:39:00,
2013-06-24 21:44:00,81.3,80.7,30.56,East,90,0.0,0.0,98,0.00,CLR,,0.00,WeatherDisplay:10.37,2013-06-25 01:44:00,
2013-06-24 21:49:00,81.3,80.7,30.56,East,90,0.0,0.0,98,0.00,CLR,,0.00,WeatherDisplay:10.37,2013-06-25 01:49:00,
2013-06-24 21:55:00,81.3,80.7,30.56,East,90,0.0,0.0,98,0.00,CLR,,0.00,WeatherDisplay:10.37,2013-06-25 01:55:00,
2013-06-24 22:00:00,81.3,80.7,30.56,East,90,0.0,0.0,98,0.00,CLR,,0.00,WeatherDisplay:10.37,2013-06-25 02:00:00,
2013-06-24 22:05:00,81.3,80.7,30.56,East,90,0.0,0.0,98,0.00,CLR,,0.00,WeatherDisplay:10.37,2013-06-25 02:05:00,
2013-06-24 22:11:00,81.3,80.7,30.56,East,90,0.0,0.0,98,0.00,CLR,,0.00,WeatherDisplay:10.37,2013-06-25 02:11:00,
2013-06-24 22:17:00,81.3,80.7,30.56,East,90,0.0,0.0,98,0.00,CLR,,0.00,WeatherDisplay:10.37,2013-06-25 02:17:00,
2013-06-24 22:22:00,81.3,80.7,30.56,East,90,0.0,0.0,98,0.00,CLR,,0.00,WeatherDisplay:10.37,2013-06-25 02:22:00,
2013-06-24 22:27:00,81.3,80.7,30.56,East,90,0.0,0.0,98,0.00,CLR,,0.00,WeatherDisplay:10.37,2013-06-25 02:27:00,
2013-06-24 22:32:00,81.3,80.7,30.56,East,90,0.0,0.0,98,0.00,CLR,,0.00,WeatherDisplay:10.37,2013-06-25 02:32:00,
2013-06-24 22:37:00,81.3,80.7,30.56,East,90,0.0,0.0,98,0.00,CLR,,0.00,WeatherDisplay:10.37,2013-06-25 02:37:00,
2013-06-24 22:42:00,81.3,80.7,30.56,East,90,0.0,0.0,98,0.00,CLR,,0.00,WeatherDisplay:10.37,2013-06-25 02:42:00,
2013-06-24 22:47:00,81.3,80.7,30.56,East,90,0.0,0.0,98,0.00,CLR,,0.00,WeatherDisplay:10.37,2013-06-25 02:47:00,
2013-06-24 22:52:00,81.3,80.7,30.56,East,90,0.0,0.0,98,0.00,CLR,,0.00,WeatherDisplay:10.37,2013-06-25 02:52:00,
2013-06-24 22:58:00,81.3,80.7,30.56,East,90,0.0,0.0,98,0.00,CLR,,0.00,WeatherDisplay:10.37,2013-06-25 02:58:00,
2013-06-24 23:03:00,81.3,80.7,30.56,East,90,0.0,0.0,98,0.00,CLR,,0.00,WeatherDisplay:10.37,2013-06-25 03:03:00,
2013-06-24 23:08:00,81.3,80.7,30.56,East,90,0.0,0.0,98,0.00,CLR,,0.00,WeatherDisplay:10.37,2013-06-25 03:08:00,
2013-06-24 23:13:00,81.3,80.7,30.56,East,90,0.0,0.0,98,0.00,CLR,,0.00,WeatherDisplay:10.37,2013-06-25 03:13:00,
2013-06-24 23:18:00,81.3,80.7,30.56,East,90,0.0,0.0,98,0.00,CLR,,0.00,WeatherDisplay:10.37,2013-06-25 03:18:00,
2013-06-24 23:23:00,81.3,80.7,30.56,East,90,0.0,0.0,98,0.00,CLR,,0.00,WeatherDisplay:10.37,2013-06-25 03:23:00,
2013-06-24 23:28:00,81.3,80.7,30.56,East,90,0.0,0.0,98,0.00,CLR,,0.00,WeatherDisplay:10.37,2013-06-25 03:28:00,
2013-06-24 23:34:00,81.3,80.7,30.56,East,90,0.0,0.0,98,0.00,CLR,,0.00,WeatherDisplay:10.37,2013-06-25 03:34:00,
2013-06-24 23:39:00,81.3,80.7,30.56,East,90,0.0,0.0,98,0.00,CLR,,0.00,WeatherDisplay:10.37,2013-06-25 03:39:00,
2013-06-24 23:44:00,81.3,80.7,30.56,East,90,0.0,0.0,98,0.00,CLR,,0.00,WeatherDisplay:10.37,2013-06-25 03:44:00,
2013-06-24 23:51:00,81.3,80.7,30.56,East,90,0.0,0.0,98,0.00,CLR,,0.00,WeatherDisplay:10.37,2013-06-25 03:51:00,
2013-06-24 23:56:00,81.3,80.7,30.56,East,90,0.0,0.0,98,0.00,CLR,,0.00,WeatherDisplay:10.37,2013-06-25 03:56:00,